KASL/ASL METAR and TAF weather

Enter ICAO airport designator
Station Type Date Time Source
KASL METAR 2021/10/24 21:15 UTC NOAA

KASL 242115Z AUTO 19014KT 10SM SCT050 30/17 A2983 RMK AO1 T02950169


Station Type Date Time Source
KASL Decoded METAR 2021/10/24 21:15 UTC NOAA

Station name not available
Oct 24, 2021 - 05:15 PM EDT / 2021.10.24 2115 UTC
Wind: from the S (190 degrees) at 16 MPH (14 KT):0
Visibility: 10 mile(s):0
Sky conditions: partly cloudy
Temperature: 85.1 F (29.5 C)
Dew Point: 62.4 F (16.9 C)
Relative Humidity: 46%
Pressure (altimeter): 29.83 in. Hg (1010 hPa)
ob: KASL 242115Z AUTO 19014KT 10SM SCT050 30/17 A2983 RMK AO1 T02950169
cycle: 21

Station Type Date Time Source
KASL TAF UTC NOAA

Error!

Example: see airport list